Airfield :
LOGIN :

Register | Disclaimer

   EN    FR    IT 

 










Legend :    VFR   Marginal VFR   IFR   Intensive IFR   Very Intensive IFR
Visi :
Ceiling :
>= 8 km
>= 3000ft
5 to 8 km
1000 to 3000 ft
1500m to 5 km
500 to 1000 ft
800 to 1500m
200 to 500 ft
< 800m
< 200 ft
Symbols :   Thunderstorms  Fog  Heavy snow  Heavy precipitations  Wind > 20 kt
SIGMETs :     Misc.  Thunderstorms  Icing  Turbulence  Mountain Waves  Volcanic Ashes






- Airport Elevation : 197 ft
- IATA code : XOG


LFMO - Orange

CURRENT METAR :
  • 022100Z AUTO 13007KT CAVOK 19/15 Q1013 NOSIG

EXPIRED METARs :
  • 022030Z AUTO 15005KT CAVOK 20/15 Q1013 NOSIG
  • 022000Z AUTO 16005KT 130V190 CAVOK 21/15 Q1013 NOSIG
  • 021930Z AUTO 18005KT 150V210 CAVOK 22/15 Q1012 NOSIG
  • 021900Z AUTO 20007KT 160V230 CAVOK 23/15 Q1012 NOSIG
  • 021830Z AUTO 21007KT 160V240 CAVOK 24/15 Q1012 NOSIG

TAF TAF LFMO
Valid from the 02 at 21:00 until the 03 at 21:00 UTC


022000Z 0221/0321 16005KT CAVOK
BECMG 0301/0303 BKN010
PROB30
TEMPO 0303/0306 BKN005
BECMG 0307/0309 SCT020
BECMG 0312/0313 19015KT
PROB30
TEMPO 0313/0318 4000 SHRA SCT060TCU



MET'MAP, your aeronautical weather chart ! - Copyright ORBIFLY December 2007 - Disclaimer

ORBIFLY MET'MAP TEAM :

Programming & Development : Alexandra Zaïnal
Concept & original design : Baudouin d'Aumeries
Assistance for programming : Marc-Olivier Méhu
Technical & hardware support : Manuel Goepfert

Contact : metmap@orbifly.com




SOURCES & CREDITS :

   NOAA